sensor_id;sensor_type;location;lat;lon;timestamp;P1;durP1;ratioP1;P2;durP2;ratioP2
23302;SDS011;11820;48.738;9.092;2022-11-11T00:07:18;5.03;;;2.30;;
23302;SDS011;11820;48.738;9.092;2022-11-11T00:09:44;5.60;;;2.20;;
23302;SDS011;11820;48.738;9.092;2022-11-11T00:12:09;4.27;;;2.10;;
23302;SDS011;11820;48.738;9.092;2022-11-11T00:14:34;3.73;;;2.30;;
23302;SDS011;11820;48.738;9.092;2022-11-11T00:17:00;4.50;;;1.93;;
23302;SDS011;11820;48.738;9.092;2022-11-11T00:19:44;5.40;;;2.67;;
23302;SDS011;11820;48.738;9.092;2022-11-11T00:22:27;5.70;;;2.17;;
23302;SDS011;11820;48.738;9.092;2022-11-11T00:25:14;3.83;;;1.43;;
23302;SDS011;11820;48.738;9.092;2022-11-11T00:27:40;5.47;;;2.40;;
23302;SDS011;11820;48.738;9.092;2022-11-11T00:30:06;2.57;;;1.80;;
23302;SDS011;11820;48.738;9.092;2022-11-11T00:32:32;2.67;;;1.93;;
23302;SDS011;11820;48.738;9.092;2022-11-11T00:34:57;3.37;;;2.00;;
23302;SDS011;11820;48.738;9.092;2022-11-11T00:37:42;3.43;;;2.30;;
23302;SDS011;11820;48.738;9.092;2022-11-11T00:40:09;4.13;;;2.03;;
23302;SDS011;11820;48.738;9.092;2022-11-11T00:42:35;4.50;;;2.43;;
23302;SDS011;11820;48.738;9.092;2022-11-11T00:45:01;4.93;;;2.17;;
23302;SDS011;11820;48.738;9.092;2022-11-11T00:47:27;6.17;;;2.20;;
23302;SDS011;11820;48.738;9.092;2022-11-11T00:52:59;2.47;;;1.70;;
23302;SDS011;11820;48.738;9.092;2022-11-11T00:55:25;2.80;;;1.80;;
23302;SDS011;11820;48.738;9.092;2022-11-11T00:57:51;4.53;;;2.37;;
23302;SDS011;11820;48.738;9.092;2022-11-11T01:00:16;3.53;;;1.87;;
23302;SDS011;11820;48.738;9.092;2022-11-11T01:02:41;2.40;;;1.50;;
23302;SDS011;11820;48.738;9.092;2022-11-11T01:05:07;2.73;;;1.77;;
23302;SDS011;11820;48.738;9.092;2022-11-11T01:07:32;2.57;;;1.47;;
23302;SDS011;11820;48.738;9.092;2022-11-11T01:09:58;2.37;;;1.20;;
23302;SDS011;11820;48.738;9.092;2022-11-11T01:12:23;3.53;;;1.47;;
23302;SDS011;11820;48.738;9.092;2022-11-11T01:14:48;2.13;;;1.30;;
23302;SDS011;11820;48.738;9.092;2022-11-11T01:17:13;4.03;;;1.30;;
23302;SDS011;11820;48.738;9.092;2022-11-11T01:19:39;4.80;;;1.90;;
23302;SDS011;11820;48.738;9.092;2022-11-11T01:22:04;1.70;;;1.57;;
23302;SDS011;11820;48.738;9.092;2022-11-11T01:24:29;2.53;;;1.77;;
23302;SDS011;11820;48.738;9.092;2022-11-11T01:26:55;2.20;;;1.53;;
23302;SDS011;11820;48.738;9.092;2022-11-11T01:29:20;4.70;;;2.07;;
23302;SDS011;11820;48.738;9.092;2022-11-11T01:31:45;4.40;;;2.80;;
23302;SDS011;11820;48.738;9.092;2022-11-11T01:34:11;4.10;;;2.20;;
23302;SDS011;11820;48.738;9.092;2022-11-11T01:36:36;3.53;;;2.63;;
23302;SDS011;11820;48.738;9.092;2022-11-11T01:39:01;2.67;;;2.30;;
23302;SDS011;11820;48.738;9.092;2022-11-11T01:41:31;5.20;;;2.67;;
23302;SDS011;11820;48.738;9.092;2022-11-11T01:44:02;7.57;;;2.27;;
23302;SDS011;11820;48.738;9.092;2022-11-11T01:46:40;3.83;;;2.43;;
23302;SDS011;11820;48.738;9.092;2022-11-11T01:49:32;7.73;;;2.30;;
23302;SDS011;11820;48.738;9.092;2022-11-11T01:52:12;7.53;;;2.30;;
23302;SDS011;11820;48.738;9.092;2022-11-11T01:54:49;4.67;;;1.90;;
23302;SDS011;11820;48.738;9.092;2022-11-11T01:57:20;2.10;;;1.87;;
23302;SDS011;11820;48.738;9.092;2022-11-11T01:59:57;3.83;;;1.80;;
23302;SDS011;11820;48.738;9.092;2022-11-11T02:02:42;4.27;;;1.90;;
23302;SDS011;11820;48.738;9.092;2022-11-11T02:05:09;5.10;;;1.83;;
23302;SDS011;11820;48.738;9.092;2022-11-11T02:07:56;6.83;;;2.43;;
23302;SDS011;11820;48.738;9.092;2022-11-11T02:10:24;2.17;;;1.63;;
23302;SDS011;11820;48.738;9.092;2022-11-11T02:12:52;2.90;;;1.67;;
23302;SDS011;11820;48.738;9.092;2022-11-11T02:15:36;4.93;;;1.90;;
23302;SDS011;11820;48.738;9.092;2022-11-11T02:18:02;3.33;;;2.00;;
23302;SDS011;11820;48.738;9.092;2022-11-11T02:20:29;3.00;;;1.93;;
23302;SDS011;11820;48.738;9.092;2022-11-11T02:25:33;3.23;;;1.97;;
23302;SDS011;11820;48.738;9.092;2022-11-11T02:28:02;2.60;;;1.80;;
23302;SDS011;11820;48.738;9.092;2022-11-11T02:30:30;2.10;;;1.90;;
23302;SDS011;11820;48.738;9.092;2022-11-11T02:32:55;4.00;;;1.60;;
23302;SDS011;11820;48.738;9.092;2022-11-11T02:35:25;3.00;;;2.10;;
23302;SDS011;11820;48.738;9.092;2022-11-11T02:37:55;3.47;;;2.10;;
23302;SDS011;11820;48.738;9.092;2022-11-11T02:42:53;6.23;;;2.33;;
23302;SDS011;11820;48.738;9.092;2022-11-11T02:45:18;4.93;;;1.83;;
23302;SDS011;11820;48.738;9.092;2022-11-11T02:47:43;2.47;;;1.80;;
23302;SDS011;11820;48.738;9.092;2022-11-11T02:50:09;4.47;;;2.10;;
23302;SDS011;11820;48.738;9.092;2022-11-11T02:52:34;2.33;;;1.70;;
23302;SDS011;11820;48.738;9.092;2022-11-11T02:55:00;6.80;;;2.10;;
23302;SDS011;11820;48.738;9.092;2022-11-11T02:57:26;3.03;;;1.80;;
23302;SDS011;11820;48.738;9.092;2022-11-11T02:59:52;4.03;;;1.83;;
23302;SDS011;11820;48.738;9.092;2022-11-11T03:02:17;6.27;;;2.17;;
23302;SDS011;11820;48.738;9.092;2022-11-11T03:04:42;4.07;;;2.33;;
23302;SDS011;11820;48.738;9.092;2022-11-11T03:07:08;4.07;;;2.30;;
23302;SDS011;11820;48.738;9.092;2022-11-11T03:09:33;3.73;;;2.20;;
23302;SDS011;11820;48.738;9.092;2022-11-11T03:11:59;4.53;;;2.00;;
23302;SDS011;11820;48.738;9.092;2022-11-11T03:14:24;2.80;;;1.93;;
23302;SDS011;11820;48.738;9.092;2022-11-11T03:16:50;3.80;;;2.33;;
23302;SDS011;11820;48.738;9.092;2022-11-11T03:19:34;7.07;;;2.30;;
23302;SDS011;11820;48.738;9.092;2022-11-11T03:22:00;4.67;;;2.63;;
23302;SDS011;11820;48.738;9.092;2022-11-11T03:24:27;5.20;;;2.27;;
23302;SDS011;11820;48.738;9.092;2022-11-11T03:27:13;3.50;;;2.73;;
23302;SDS011;11820;48.738;9.092;2022-11-11T03:29:38;4.13;;;2.00;;
23302;SDS011;11820;48.738;9.092;2022-11-11T03:32:05;2.80;;;1.90;;
23302;SDS011;11820;48.738;9.092;2022-11-11T03:34:31;7.00;;;2.40;;
23302;SDS011;11820;48.738;9.092;2022-11-11T03:36:56;5.43;;;2.50;;
23302;SDS011;11820;48.738;9.092;2022-11-11T03:39:40;2.50;;;2.07;;
23302;SDS011;11820;48.738;9.092;2022-11-11T03:42:05;3.40;;;2.30;;
23302;SDS011;11820;48.738;9.092;2022-11-11T03:44:31;2.20;;;1.87;;
23302;SDS011;11820;48.738;9.092;2022-11-11T03:46:56;3.30;;;1.83;;
23302;SDS011;11820;48.738;9.092;2022-11-11T03:49:21;2.47;;;1.93;;
23302;SDS011;11820;48.738;9.092;2022-11-11T03:51:46;3.53;;;1.90;;
23302;SDS011;11820;48.738;9.092;2022-11-11T03:54:12;4.40;;;1.93;;
23302;SDS011;11820;48.738;9.092;2022-11-11T03:56:37;2.53;;;2.03;;
23302;SDS011;11820;48.738;9.092;2022-11-11T03:59:02;2.80;;;2.37;;
23302;SDS011;11820;48.738;9.092;2022-11-11T04:01:28;4.13;;;2.33;;
23302;SDS011;11820;48.738;9.092;2022-11-11T04:04:12;2.80;;;2.40;;
23302;SDS011;11820;48.738;9.092;2022-11-11T04:06:56;3.03;;;2.10;;
23302;SDS011;11820;48.738;9.092;2022-11-11T04:09:39;2.57;;;1.93;;
23302;SDS011;11820;48.738;9.092;2022-11-11T04:12:23;3.00;;;2.13;;
23302;SDS011;11820;48.738;9.092;2022-11-11T04:14:50;2.03;;;1.83;;
23302;SDS011;11820;48.738;9.092;2022-11-11T04:17:34;3.00;;;2.20;;
23302;SDS011;11820;48.738;9.092;2022-11-11T04:19:59;4.00;;;2.03;;
23302;SDS011;11820;48.738;9.092;2022-11-11T04:22:43;4.30;;;2.17;;
23302;SDS011;11820;48.738;9.092;2022-11-11T04:25:09;3.27;;;2.23;;
23302;SDS011;11820;48.738;9.092;2022-11-11T04:27:56;4.07;;;2.23;;
23302;SDS011;11820;48.738;9.092;2022-11-11T04:30:54;3.10;;;2.30;;
23302;SDS011;11820;48.738;9.092;2022-11-11T04:33:19;6.10;;;2.63;;
23302;SDS011;11820;48.738;9.092;2022-11-11T04:35:47;4.20;;;2.40;;
23302;SDS011;11820;48.738;9.092;2022-11-11T04:38:13;4.63;;;1.93;;
23302;SDS011;11820;48.738;9.092;2022-11-11T04:41:17;5.70;;;1.93;;
23302;SDS011;11820;48.738;9.092;2022-11-11T04:43:42;3.93;;;2.10;;
23302;SDS011;11820;48.738;9.092;2022-11-11T04:46:26;3.53;;;1.83;;
23302;SDS011;11820;48.738;9.092;2022-11-11T04:48:51;3.47;;;2.20;;
23302;SDS011;11820;48.738;9.092;2022-11-11T04:51:17;2.90;;;1.83;;
23302;SDS011;11820;48.738;9.092;2022-11-11T04:53:42;5.37;;;2.00;;
23302;SDS011;11820;48.738;9.092;2022-11-11T04:56:07;4.97;;;2.57;;
23302;SDS011;11820;48.738;9.092;2022-11-11T04:58:51;3.63;;;2.47;;
23302;SDS011;11820;48.738;9.092;2022-11-11T05:01:37;4.27;;;2.03;;
23302;SDS011;11820;48.738;9.092;2022-11-11T05:04:20;2.97;;;2.10;;
23302;SDS011;11820;48.738;9.092;2022-11-11T05:06:46;4.23;;;2.47;;
23302;SDS011;11820;48.738;9.092;2022-11-11T05:09:29;2.90;;;1.90;;
23302;SDS011;11820;48.738;9.092;2022-11-11T05:11:55;4.17;;;2.10;;
23302;SDS011;11820;48.738;9.092;2022-11-11T05:14:20;3.90;;;2.33;;
23302;SDS011;11820;48.738;9.092;2022-11-11T05:17:04;4.07;;;2.27;;
23302;SDS011;11820;48.738;9.092;2022-11-11T05:19:49;3.97;;;1.77;;
23302;SDS011;11820;48.738;9.092;2022-11-11T05:22:34;3.57;;;2.03;;
23302;SDS011;11820;48.738;9.092;2022-11-11T05:25:01;5.27;;;2.50;;
23302;SDS011;11820;48.738;9.092;2022-11-11T05:27:46;4.57;;;2.10;;
23302;SDS011;11820;48.738;9.092;2022-11-11T05:30:13;3.90;;;2.13;;
23302;SDS011;11820;48.738;9.092;2022-11-11T05:32:39;3.97;;;2.83;;
23302;SDS011;11820;48.738;9.092;2022-11-11T05:35:05;3.50;;;2.50;;
23302;SDS011;11820;48.738;9.092;2022-11-11T05:37:32;2.80;;;2.40;;
23302;SDS011;11820;48.738;9.092;2022-11-11T05:39:57;3.80;;;2.57;;
23302;SDS011;11820;48.738;9.092;2022-11-11T05:42:22;3.60;;;2.40;;
23302;SDS011;11820;48.738;9.092;2022-11-11T05:44:48;3.40;;;2.57;;
23302;SDS011;11820;48.738;9.092;2022-11-11T05:47:14;2.93;;;2.73;;
23302;SDS011;11820;48.738;9.092;2022-11-11T05:49:39;3.90;;;2.70;;
23302;SDS011;11820;48.738;9.092;2022-11-11T05:52:05;4.37;;;3.17;;
23302;SDS011;11820;48.738;9.092;2022-11-11T05:54:31;3.37;;;2.87;;
23302;SDS011;11820;48.738;9.092;2022-11-11T05:56:56;6.30;;;3.03;;
23302;SDS011;11820;48.738;9.092;2022-11-11T05:59:21;2.87;;;2.63;;
23302;SDS011;11820;48.738;9.092;2022-11-11T06:01:47;5.07;;;3.07;;
23302;SDS011;11820;48.738;9.092;2022-11-11T06:04:12;4.73;;;3.30;;
23302;SDS011;11820;48.738;9.092;2022-11-11T06:06:37;3.47;;;2.97;;
23302;SDS011;11820;48.738;9.092;2022-11-11T06:09:03;3.80;;;3.00;;
23302;SDS011;11820;48.738;9.092;2022-11-11T06:11:28;4.47;;;2.80;;
23302;SDS011;11820;48.738;9.092;2022-11-11T06:13:54;3.97;;;2.90;;
23302;SDS011;11820;48.738;9.092;2022-11-11T06:16:20;5.40;;;3.43;;
23302;SDS011;11820;48.738;9.092;2022-11-11T06:18:46;4.47;;;3.20;;
23302;SDS011;11820;48.738;9.092;2022-11-11T06:21:11;6.70;;;4.73;;
23302;SDS011;11820;48.738;9.092;2022-11-11T06:23:37;5.93;;;4.00;;
23302;SDS011;11820;48.738;9.092;2022-11-11T06:26:03;4.90;;;3.63;;
23302;SDS011;11820;48.738;9.092;2022-11-11T06:28:42;5.83;;;3.67;;
23302;SDS011;11820;48.738;9.092;2022-11-11T06:31:10;6.07;;;3.33;;
23302;SDS011;11820;48.738;9.092;2022-11-11T06:33:38;8.53;;;3.50;;
23302;SDS011;11820;48.738;9.092;2022-11-11T06:36:04;7.83;;;3.77;;
23302;SDS011;11820;48.738;9.092;2022-11-11T06:38:30;4.87;;;2.50;;
23302;SDS011;11820;48.738;9.092;2022-11-11T06:40:56;4.40;;;3.97;;
23302;SDS011;11820;48.738;9.092;2022-11-11T06:43:21;5.10;;;3.10;;
23302;SDS011;11820;48.738;9.092;2022-11-11T06:45:50;4.03;;;3.17;;
23302;SDS011;11820;48.738;9.092;2022-11-11T06:48:17;4.50;;;3.10;;
23302;SDS011;11820;48.738;9.092;2022-11-11T06:50:43;5.57;;;3.47;;
23302;SDS011;11820;48.738;9.092;2022-11-11T06:53:10;3.47;;;2.73;;
23302;SDS011;11820;48.738;9.092;2022-11-11T06:55:37;6.87;;;2.97;;
23302;SDS011;11820;48.738;9.092;2022-11-11T06:58:03;4.97;;;3.57;;
23302;SDS011;11820;48.738;9.092;2022-11-11T07:00:30;6.00;;;3.60;;
23302;SDS011;11820;48.738;9.092;2022-11-11T07:02:55;3.93;;;3.07;;
23302;SDS011;11820;48.738;9.092;2022-11-11T07:05:21;6.03;;;3.83;;
23302;SDS011;11820;48.738;9.092;2022-11-11T07:07:46;3.67;;;3.10;;
23302;SDS011;11820;48.738;9.092;2022-11-11T07:10:11;5.97;;;3.70;;
23302;SDS011;11820;48.738;9.092;2022-11-11T07:12:39;4.00;;;3.30;;
23302;SDS011;11820;48.738;9.092;2022-11-11T07:15:05;4.07;;;3.13;;
23302;SDS011;11820;48.738;9.092;2022-11-11T07:17:31;4.63;;;3.70;;
23302;SDS011;11820;48.738;9.092;2022-11-11T07:19:56;4.43;;;3.60;;
23302;SDS011;11820;48.738;9.092;2022-11-11T07:22:21;5.20;;;3.70;;
23302;SDS011;11820;48.738;9.092;2022-11-11T07:24:47;5.50;;;3.37;;
23302;SDS011;11820;48.738;9.092;2022-11-11T07:27:12;6.17;;;3.70;;
23302;SDS011;11820;48.738;9.092;2022-11-11T07:29:37;8.30;;;4.50;;
23302;SDS011;11820;48.738;9.092;2022-11-11T07:32:02;7.63;;;3.70;;
23302;SDS011;11820;48.738;9.092;2022-11-11T07:34:31;7.60;;;4.10;;
23302;SDS011;11820;48.738;9.092;2022-11-11T07:36:56;6.20;;;4.40;;
23302;SDS011;11820;48.738;9.092;2022-11-11T07:39:22;11.67;;;4.43;;
23302;SDS011;11820;48.738;9.092;2022-11-11T07:41:48;8.93;;;4.33;;
23302;SDS011;11820;48.738;9.092;2022-11-11T07:44:13;8.73;;;4.68;;
23302;SDS011;11820;48.738;9.092;2022-11-11T07:46:39;6.27;;;4.27;;
23302;SDS011;11820;48.738;9.092;2022-11-11T07:49:04;9.00;;;5.57;;
23302;SDS011;11820;48.738;9.092;2022-11-11T07:51:29;9.57;;;5.63;;
23302;SDS011;11820;48.738;9.092;2022-11-11T07:53:55;7.23;;;5.50;;
23302;SDS011;11820;48.738;9.092;2022-11-11T07:56:20;7.97;;;4.80;;
23302;SDS011;11820;48.738;9.092;2022-11-11T07:58:45;6.57;;;5.20;;
23302;SDS011;11820;48.738;9.092;2022-11-11T08:01:14;5.03;;;4.30;;
23302;SDS011;11820;48.738;9.092;2022-11-11T08:03:39;7.77;;;4.90;;
23302;SDS011;11820;48.738;9.092;2022-11-11T08:06:22;9.50;;;4.63;;
23302;SDS011;11820;48.738;9.092;2022-11-11T08:08:48;7.03;;;4.80;;
23302;SDS011;11820;48.738;9.092;2022-11-11T08:11:14;7.03;;;4.50;;
23302;SDS011;11820;48.738;9.092;2022-11-11T08:13:41;8.03;;;4.17;;
23302;SDS011;11820;48.738;9.092;2022-11-11T08:16:12;5.30;;;4.17;;
23302;SDS011;11820;48.738;9.092;2022-11-11T08:18:39;5.50;;;4.33;;
23302;SDS011;11820;48.738;9.092;2022-11-11T08:21:05;7.90;;;4.73;;
23302;SDS011;11820;48.738;9.092;2022-11-11T08:23:31;10.00;;;4.97;;
23302;SDS011;11820;48.738;9.092;2022-11-11T08:26:04;8.27;;;4.70;;
23302;SDS011;11820;48.738;9.092;2022-11-11T08:28:31;5.80;;;3.93;;
23302;SDS011;11820;48.738;9.092;2022-11-11T08:30:59;7.07;;;4.10;;
23302;SDS011;11820;48.738;9.092;2022-11-11T08:33:26;6.63;;;3.27;;
23302;SDS011;11820;48.738;9.092;2022-11-11T08:35:52;5.47;;;4.17;;
23302;SDS011;11820;48.738;9.092;2022-11-11T08:38:22;7.77;;;3.87;;
23302;SDS011;11820;48.738;9.092;2022-11-11T08:40:47;7.57;;;3.87;;
23302;SDS011;11820;48.738;9.092;2022-11-11T08:43:13;4.83;;;3.33;;
23302;SDS011;11820;48.738;9.092;2022-11-11T08:45:38;8.57;;;4.97;;
23302;SDS011;11820;48.738;9.092;2022-11-11T08:48:04;6.00;;;4.70;;
23302;SDS011;11820;48.738;9.092;2022-11-11T08:50:31;7.50;;;5.97;;
23302;SDS011;11820;48.738;9.092;2022-11-11T08:52:57;7.10;;;5.30;;
23302;SDS011;11820;48.738;9.092;2022-11-11T08:55:22;11.83;;;5.43;;
23302;SDS011;11820;48.738;9.092;2022-11-11T08:57:47;8.20;;;4.93;;
23302;SDS011;11820;48.738;9.092;2022-11-11T09:00:22;9.83;;;5.00;;
23302;SDS011;11820;48.738;9.092;2022-11-11T09:02:47;5.73;;;4.87;;
23302;SDS011;11820;48.738;9.092;2022-11-11T09:05:13;8.27;;;5.07;;
23302;SDS011;11820;48.738;9.092;2022-11-11T09:07:38;8.87;;;4.07;;
23302;SDS011;11820;48.738;9.092;2022-11-11T09:10:04;8.13;;;4.50;;
23302;SDS011;11820;48.738;9.092;2022-11-11T09:12:29;5.00;;;4.50;;
23302;SDS011;11820;48.738;9.092;2022-11-11T09:14:55;8.40;;;3.67;;
23302;SDS011;11820;48.738;9.092;2022-11-11T09:17:20;5.50;;;3.70;;
23302;SDS011;11820;48.738;9.092;2022-11-11T09:19:45;4.20;;;3.73;;
23302;SDS011;11820;48.738;9.092;2022-11-11T09:22:10;5.87;;;3.70;;
23302;SDS011;11820;48.738;9.092;2022-11-11T09:24:36;5.37;;;3.10;;
23302;SDS011;11820;48.738;9.092;2022-11-11T09:27:01;6.97;;;3.70;;
23302;SDS011;11820;48.738;9.092;2022-11-11T09:29:26;5.17;;;3.03;;
23302;SDS011;11820;48.738;9.092;2022-11-11T09:31:52;3.60;;;2.33;;
23302;SDS011;11820;48.738;9.092;2022-11-11T09:34:17;4.43;;;2.53;;
23302;SDS011;11820;48.738;9.092;2022-11-11T09:36:42;5.33;;;3.17;;
23302;SDS011;11820;48.738;9.092;2022-11-11T09:39:08;5.77;;;2.90;;
23302;SDS011;11820;48.738;9.092;2022-11-11T09:47:18;4.23;;;2.47;;
23302;SDS011;11820;48.738;9.092;2022-11-11T09:52:45;2.23;;;1.90;;
23302;SDS011;11820;48.738;9.092;2022-11-11T09:55:26;5.80;;;2.00;;
23302;SDS011;11820;48.738;9.092;2022-11-11T09:57:59;2.90;;;1.77;;
23302;SDS011;11820;48.738;9.092;2022-11-11T10:00:36;3.93;;;1.93;;
23302;SDS011;11820;48.738;9.092;2022-11-11T10:05:51;4.30;;;2.30;;
23302;SDS011;11820;48.738;9.092;2022-11-11T10:08:29;5.60;;;1.90;;
23302;SDS011;11820;48.738;9.092;2022-11-11T10:11:00;4.73;;;2.20;;
23302;SDS011;11820;48.738;9.092;2022-11-11T10:13:30;3.60;;;2.10;;
23302;SDS011;11820;48.738;9.092;2022-11-11T10:16:20;6.40;;;2.20;;
23302;SDS011;11820;48.738;9.092;2022-11-11T10:24:16;7.10;;;2.20;;
23302;SDS011;11820;48.738;9.092;2022-11-11T10:26:54;5.27;;;1.93;;
23302;SDS011;11820;48.738;9.092;2022-11-11T10:29:21;4.93;;;2.07;;
23302;SDS011;11820;48.738;9.092;2022-11-11T10:31:55;4.50;;;2.37;;
23302;SDS011;11820;48.738;9.092;2022-11-11T10:34:34;5.57;;;2.23;;
23302;SDS011;11820;48.738;9.092;2022-11-11T10:37:01;4.73;;;1.60;;
23302;SDS011;11820;48.738;9.092;2022-11-11T10:42:17;3.40;;;1.70;;
23302;SDS011;11820;48.738;9.092;2022-11-11T10:44:44;3.17;;;1.73;;
23302;SDS011;11820;48.738;9.092;2022-11-11T10:47:24;2.23;;;1.70;;
23302;SDS011;11820;48.738;9.092;2022-11-11T10:50:12;2.27;;;1.30;;
23302;SDS011;11820;48.738;9.092;2022-11-11T10:52:43;2.30;;;1.60;;
23302;SDS011;11820;48.738;9.092;2022-11-11T10:58:21;3.33;;;1.53;;
23302;SDS011;11820;48.738;9.092;2022-11-11T11:00:44;3.57;;;1.63;;
23302;SDS011;11820;48.738;9.092;2022-11-11T11:03:20;4.17;;;1.80;;
23302;SDS011;11820;48.738;9.092;2022-11-11T11:05:52;3.13;;;1.60;;
23302;SDS011;11820;48.738;9.092;2022-11-11T11:08:30;3.40;;;1.50;;
23302;SDS011;11820;48.738;9.092;2022-11-11T11:11:04;5.20;;;1.53;;
23302;SDS011;11820;48.738;9.092;2022-11-11T11:13:41;11.10;;;1.90;;
23302;SDS011;11820;48.738;9.092;2022-11-11T11:16:12;4.87;;;1.57;;
23302;SDS011;11820;48.738;9.092;2022-11-11T11:18:41;3.27;;;1.30;;
23302;SDS011;11820;48.738;9.092;2022-11-11T11:21:08;2.53;;;1.10;;
23302;SDS011;11820;48.738;9.092;2022-11-11T11:26:00;2.93;;;1.50;;
23302;SDS011;11820;48.738;9.092;2022-11-11T11:28:27;2.70;;;1.33;;
23302;SDS011;11820;48.738;9.092;2022-11-11T11:33:26;4.00;;;2.13;;
23302;SDS011;11820;48.738;9.092;2022-11-11T11:35:51;3.90;;;2.33;;
23302;SDS011;11820;48.738;9.092;2022-11-11T11:38:17;7.17;;;2.60;;
23302;SDS011;11820;48.738;9.092;2022-11-11T11:43:31;4.07;;;3.13;;
23302;SDS011;11820;48.738;9.092;2022-11-11T11:45:59;6.43;;;2.67;;
23302;SDS011;11820;48.738;9.092;2022-11-11T11:48:33;4.90;;;2.50;;
23302;SDS011;11820;48.738;9.092;2022-11-11T11:53:57;3.10;;;2.03;;
23302;SDS011;11820;48.738;9.092;2022-11-11T11:56:37;3.63;;;2.17;;
23302;SDS011;11820;48.738;9.092;2022-11-11T11:59:13;3.30;;;2.00;;
23302;SDS011;11820;48.738;9.092;2022-11-11T12:01:50;2.97;;;1.63;;
23302;SDS011;11820;48.738;9.092;2022-11-11T12:07:37;3.07;;;1.73;;
23302;SDS011;11820;48.738;9.092;2022-11-11T12:10:11;2.67;;;1.80;;
23302;SDS011;11820;48.738;9.092;2022-11-11T12:12:59;3.23;;;1.80;;
23302;SDS011;11820;48.738;9.092;2022-11-11T12:21:14;3.50;;;1.90;;
23302;SDS011;11820;48.738;9.092;2022-11-11T12:31:29;3.23;;;1.20;;
23302;SDS011;11820;48.738;9.092;2022-11-11T12:36:35;6.17;;;1.60;;
23302;SDS011;11820;48.738;9.092;2022-11-11T12:45:18;1.80;;;0.80;;
23302;SDS011;11820;48.738;9.092;2022-11-11T12:47:46;3.37;;;1.20;;
23302;SDS011;11820;48.738;9.092;2022-11-11T12:50:34;7.33;;;2.23;;
23302;SDS011;11820;48.738;9.092;2022-11-11T13:04:01;2.73;;;1.60;;
23302;SDS011;11820;48.738;9.092;2022-11-11T13:06:48;3.70;;;2.10;;
23302;SDS011;11820;48.738;9.092;2022-11-11T13:12:47;12.27;;;4.03;;
23302;SDS011;11820;48.738;9.092;2022-11-11T13:15:24;8.90;;;4.10;;
23302;SDS011;11820;48.738;9.092;2022-11-11T13:17:50;6.40;;;2.30;;
23302;SDS011;11820;48.738;9.092;2022-11-11T13:22:53;4.50;;;2.47;;
23302;SDS011;11820;48.738;9.092;2022-11-11T13:25:22;2.63;;;2.20;;
23302;SDS011;11820;48.738;9.092;2022-11-11T13:27:58;3.53;;;2.23;;
23302;SDS011;11820;48.738;9.092;2022-11-11T13:33:24;4.37;;;2.43;;
23302;SDS011;11820;48.738;9.092;2022-11-11T13:36:00;3.63;;;2.47;;
23302;SDS011;11820;48.738;9.092;2022-11-11T13:38:29;4.03;;;2.30;;
23302;SDS011;11820;48.738;9.092;2022-11-11T13:41:01;4.73;;;2.20;;
23302;SDS011;11820;48.738;9.092;2022-11-11T13:45:57;3.20;;;2.07;;
23302;SDS011;11820;48.738;9.092;2022-11-11T13:48:35;2.63;;;1.93;;
23302;SDS011;11820;48.738;9.092;2022-11-11T13:51:09;3.43;;;1.77;;
23302;SDS011;11820;48.738;9.092;2022-11-11T13:53:38;5.33;;;2.17;;
23302;SDS011;11820;48.738;9.092;2022-11-11T13:56:04;3.20;;;1.90;;
23302;SDS011;11820;48.738;9.092;2022-11-11T13:58:32;6.97;;;2.20;;
23302;SDS011;11820;48.738;9.092;2022-11-11T14:01:02;4.23;;;2.90;;
23302;SDS011;11820;48.738;9.092;2022-11-11T14:03:32;4.30;;;2.67;;
23302;SDS011;11820;48.738;9.092;2022-11-11T14:13:56;5.27;;;3.23;;
23302;SDS011;11820;48.738;9.092;2022-11-11T14:17:10;5.20;;;3.00;;
23302;SDS011;11820;48.738;9.092;2022-11-11T14:21:49;7.17;;;2.90;;
23302;SDS011;11820;48.738;9.092;2022-11-11T14:24:24;9.43;;;3.13;;
23302;SDS011;11820;48.738;9.092;2022-11-11T14:26:56;9.13;;;3.23;;
23302;SDS011;11820;48.738;9.092;2022-11-11T14:29:24;5.07;;;3.35;;
23302;SDS011;11820;48.738;9.092;2022-11-11T14:37:40;10.20;;;4.47;;
23302;SDS011;11820;48.738;9.092;2022-11-11T14:40:26;4.77;;;3.10;;
23302;SDS011;11820;48.738;9.092;2022-11-11T14:42:53;6.13;;;3.33;;
23302;SDS011;11820;48.738;9.092;2022-11-11T14:47:47;8.37;;;3.67;;
23302;SDS011;11820;48.738;9.092;2022-11-11T14:52:58;5.57;;;4.17;;
23302;SDS011;11820;48.738;9.092;2022-11-11T15:00:33;5.20;;;3.73;;
23302;SDS011;11820;48.738;9.092;2022-11-11T15:03:17;8.33;;;4.50;;
23302;SDS011;11820;48.738;9.092;2022-11-11T15:05:57;8.68;;;4.40;;
23302;SDS011;11820;48.738;9.092;2022-11-11T15:11:20;6.97;;;5.00;;
23302;SDS011;11820;48.738;9.092;2022-11-11T15:14:06;7.13;;;4.63;;
23302;SDS011;11820;48.738;9.092;2022-11-11T15:25:43;6.67;;;5.27;;
23302;SDS011;11820;48.738;9.092;2022-11-11T15:31:27;9.47;;;5.33;;
23302;SDS011;11820;48.738;9.092;2022-11-11T15:37:10;8.40;;;5.33;;
23302;SDS011;11820;48.738;9.092;2022-11-11T15:39:45;13.67;;;5.57;;
23302;SDS011;11820;48.738;9.092;2022-11-11T15:42:33;7.27;;;5.40;;
23302;SDS011;11820;48.738;9.092;2022-11-11T15:45:02;8.93;;;5.83;;
23302;SDS011;11820;48.738;9.092;2022-11-11T15:47:38;7.83;;;5.60;;
23302;SDS011;11820;48.738;9.092;2022-11-11T15:50:05;12.30;;;5.23;;
23302;SDS011;11820;48.738;9.092;2022-11-11T15:52:41;8.77;;;5.17;;
23302;SDS011;11820;48.738;9.092;2022-11-11T15:55:19;11.27;;;4.77;;
23302;SDS011;11820;48.738;9.092;2022-11-11T15:57:47;9.17;;;5.30;;
23302;SDS011;11820;48.738;9.092;2022-11-11T16:00:45;9.37;;;5.83;;
23302;SDS011;11820;48.738;9.092;2022-11-11T16:03:04;9.77;;;6.10;;
23302;SDS011;11820;48.738;9.092;2022-11-11T16:05:30;6.60;;;5.57;;
23302;SDS011;11820;48.738;9.092;2022-11-11T16:08:00;7.83;;;5.70;;
23302;SDS011;11820;48.738;9.092;2022-11-11T16:10:32;6.70;;;5.83;;
23302;SDS011;11820;48.738;9.092;2022-11-11T16:15:47;11.93;;;4.97;;
23302;SDS011;11820;48.738;9.092;2022-11-11T16:18:21;12.10;;;5.37;;
23302;SDS011;11820;48.738;9.092;2022-11-11T16:21:06;9.73;;;5.47;;
23302;SDS011;11820;48.738;9.092;2022-11-11T16:23:45;7.30;;;4.57;;
23302;SDS011;11820;48.738;9.092;2022-11-11T16:26:11;11.13;;;5.30;;
23302;SDS011;11820;48.738;9.092;2022-11-11T16:28:44;7.47;;;5.33;;
23302;SDS011;11820;48.738;9.092;2022-11-11T16:33:58;13.80;;;7.83;;
23302;SDS011;11820;48.738;9.092;2022-11-11T16:37:01;13.07;;;7.10;;
23302;SDS011;11820;48.738;9.092;2022-11-11T16:39:28;8.30;;;6.40;;
23302;SDS011;11820;48.738;9.092;2022-11-11T16:41:54;9.67;;;7.17;;
23302;SDS011;11820;48.738;9.092;2022-11-11T16:44:28;12.17;;;7.30;;
23302;SDS011;11820;48.738;9.092;2022-11-11T16:46:59;8.53;;;6.57;;
23302;SDS011;11820;48.738;9.092;2022-11-11T16:51:56;8.80;;;6.47;;
23302;SDS011;11820;48.738;9.092;2022-11-11T16:54:35;9.03;;;6.30;;
23302;SDS011;11820;48.738;9.092;2022-11-11T16:57:03;8.00;;;5.87;;
23302;SDS011;11820;48.738;9.092;2022-11-11T16:59:34;10.63;;;5.37;;
23302;SDS011;11820;48.738;9.092;2022-11-11T17:02:08;7.07;;;5.10;;
23302;SDS011;11820;48.738;9.092;2022-11-11T17:04:46;9.33;;;6.10;;
23302;SDS011;11820;48.738;9.092;2022-11-11T17:07:52;7.20;;;5.77;;
23302;SDS011;11820;48.738;9.092;2022-11-11T17:10:16;9.57;;;6.60;;
23302;SDS011;11820;48.738;9.092;2022-11-11T17:12:43;14.30;;;6.80;;
23302;SDS011;11820;48.738;9.092;2022-11-11T17:15:10;7.73;;;5.97;;
23302;SDS011;11820;48.738;9.092;2022-11-11T17:17:37;8.67;;;6.17;;
23302;SDS011;11820;48.738;9.092;2022-11-11T17:20:15;9.43;;;5.67;;
23302;SDS011;11820;48.738;9.092;2022-11-11T17:22:50;10.27;;;6.43;;
23302;SDS011;11820;48.738;9.092;2022-11-11T17:25:17;12.47;;;6.63;;
23302;SDS011;11820;48.738;9.092;2022-11-11T17:27:43;8.00;;;6.63;;
23302;SDS011;11820;48.738;9.092;2022-11-11T17:30:09;11.30;;;7.10;;
23302;SDS011;11820;48.738;9.092;2022-11-11T17:32:36;12.30;;;7.70;;
23302;SDS011;11820;48.738;9.092;2022-11-11T17:35:02;10.23;;;6.83;;